sensor_id;sensor_type;location;lat;lon;timestamp;P1;durP1;ratioP1;P2;durP2;ratioP2
23044;SDS011;11690;51.716;23.066;2023-08-17T00:00:03;9.27;;;6.75;;
23044;SDS011;11690;51.716;23.066;2023-08-17T00:02:55;12.55;;;7.93;;
23044;SDS011;11690;51.716;23.066;2023-08-17T00:05:22;15.10;;;8.38;;
23044;SDS011;11690;51.716;23.066;2023-08-17T00:07:49;13.80;;;8.80;;
23044;SDS011;11690;51.716;23.066;2023-08-17T00:10:16;18.38;;;9.70;;
23044;SDS011;11690;51.716;23.066;2023-08-17T00:12:44;12.27;;;9.90;;
23044;SDS011;11690;51.716;23.066;2023-08-17T00:15:11;11.00;;;8.65;;
23044;SDS011;11690;51.716;23.066;2023-08-17T00:17:38;12.45;;;8.68;;
23044;SDS011;11690;51.716;23.066;2023-08-17T00:20:06;11.18;;;8.85;;
23044;SDS011;11690;51.716;23.066;2023-08-17T00:22:33;10.50;;;8.60;;
23044;SDS011;11690;51.716;23.066;2023-08-17T00:25:01;13.57;;;8.23;;
23044;SDS011;11690;51.716;23.066;2023-08-17T00:27:34;13.35;;;9.13;;
23044;SDS011;11690;51.716;23.066;2023-08-17T00:30:01;11.48;;;8.77;;
23044;SDS011;11690;51.716;23.066;2023-08-17T00:32:28;14.57;;;8.20;;
23044;SDS011;11690;51.716;23.066;2023-08-17T00:34:55;12.77;;;8.85;;
23044;SDS011;11690;51.716;23.066;2023-08-17T00:37:22;11.95;;;8.82;;
23044;SDS011;11690;51.716;23.066;2023-08-17T00:39:50;11.80;;;8.98;;
23044;SDS011;11690;51.716;23.066;2023-08-17T00:42:17;13.13;;;8.90;;
23044;SDS011;11690;51.716;23.066;2023-08-17T00:44:44;13.68;;;9.65;;
23044;SDS011;11690;51.716;23.066;2023-08-17T00:47:11;16.08;;;8.85;;
23044;SDS011;11690;51.716;23.066;2023-08-17T00:49:40;13.90;;;9.18;;
23044;SDS011;11690;51.716;23.066;2023-08-17T00:52:07;13.13;;;9.00;;
23044;SDS011;11690;51.716;23.066;2023-08-17T00:54:34;14.65;;;9.80;;
23044;SDS011;11690;51.716;23.066;2023-08-17T00:57:01;13.23;;;10.15;;
23044;SDS011;11690;51.716;23.066;2023-08-17T00:59:33;14.60;;;9.40;;
23044;SDS011;11690;51.716;23.066;2023-08-17T01:02:03;14.25;;;10.25;;
23044;SDS011;11690;51.716;23.066;2023-08-17T01:04:31;15.73;;;9.75;;
23044;SDS011;11690;51.716;23.066;2023-08-17T01:06:58;17.52;;;10.48;;
23044;SDS011;11690;51.716;23.066;2023-08-17T01:09:26;17.70;;;9.93;;
23044;SDS011;11690;51.716;23.066;2023-08-17T01:12:00;17.65;;;9.80;;
23044;SDS011;11690;51.716;23.066;2023-08-17T01:17:47;15.18;;;10.43;;
23044;SDS011;11690;51.716;23.066;2023-08-17T01:19:57;16.80;;;10.23;;
23044;SDS011;11690;51.716;23.066;2023-08-17T01:22:25;17.65;;;10.48;;
23044;SDS011;11690;51.716;23.066;2023-08-17T01:24:56;20.05;;;9.90;;
23044;SDS011;11690;51.716;23.066;2023-08-17T01:27:26;13.50;;;9.88;;
23044;SDS011;11690;51.716;23.066;2023-08-17T01:30:00;17.27;;;10.63;;
23044;SDS011;11690;51.716;23.066;2023-08-17T01:32:29;12.38;;;9.63;;
23044;SDS011;11690;51.716;23.066;2023-08-17T01:35:01;15.23;;;10.45;;
23044;SDS011;11690;51.716;23.066;2023-08-17T01:37:35;15.65;;;10.38;;
23044;SDS011;11690;51.716;23.066;2023-08-17T01:40:05;17.65;;;10.80;;
23044;SDS011;11690;51.716;23.066;2023-08-17T01:42:34;13.98;;;10.20;;
23044;SDS011;11690;51.716;23.066;2023-08-17T01:45:01;15.48;;;11.13;;
23044;SDS011;11690;51.716;23.066;2023-08-17T01:47:29;23.08;;;10.75;;
23044;SDS011;11690;51.716;23.066;2023-08-17T01:49:57;15.85;;;9.68;;
23044;SDS011;11690;51.716;23.066;2023-08-17T01:52:26;14.35;;;10.35;;
23044;SDS011;11690;51.716;23.066;2023-08-17T01:54:54;15.57;;;9.35;;
23044;SDS011;11690;51.716;23.066;2023-08-17T01:57:21;18.40;;;9.90;;
23044;SDS011;11690;51.716;23.066;2023-08-17T01:59:49;19.05;;;9.68;;
23044;SDS011;11690;51.716;23.066;2023-08-17T02:02:16;19.30;;;10.30;;
23044;SDS011;11690;51.716;23.066;2023-08-17T02:04:44;15.15;;;10.05;;
23044;SDS011;11690;51.716;23.066;2023-08-17T02:07:11;15.57;;;9.82;;
23044;SDS011;11690;51.716;23.066;2023-08-17T02:09:38;19.15;;;9.77;;
23044;SDS011;11690;51.716;23.066;2023-08-17T02:12:05;16.15;;;10.85;;
23044;SDS011;11690;51.716;23.066;2023-08-17T02:14:33;14.93;;;9.95;;
23044;SDS011;11690;51.716;23.066;2023-08-17T02:17:00;19.23;;;11.77;;
23044;SDS011;11690;51.716;23.066;2023-08-17T02:19:27;18.85;;;10.13;;
23044;SDS011;11690;51.716;23.066;2023-08-17T02:21:54;16.13;;;10.70;;
23044;SDS011;11690;51.716;23.066;2023-08-17T02:24:22;21.05;;;11.20;;
23044;SDS011;11690;51.716;23.066;2023-08-17T02:26:52;14.52;;;10.57;;
23044;SDS011;11690;51.716;23.066;2023-08-17T02:29:19;17.60;;;10.60;;
23044;SDS011;11690;51.716;23.066;2023-08-17T02:31:46;19.35;;;11.38;;
23044;SDS011;11690;51.716;23.066;2023-08-17T02:34:13;15.73;;;10.65;;
23044;SDS011;11690;51.716;23.066;2023-08-17T02:36:41;14.88;;;11.07;;
23044;SDS011;11690;51.716;23.066;2023-08-17T02:39:07;14.27;;;10.50;;
23044;SDS011;11690;51.716;23.066;2023-08-17T02:41:35;19.45;;;11.43;;
23044;SDS011;11690;51.716;23.066;2023-08-17T02:44:02;15.02;;;11.32;;
23044;SDS011;11690;51.716;23.066;2023-08-17T02:46:29;18.30;;;11.38;;
23044;SDS011;11690;51.716;23.066;2023-08-17T02:48:57;18.33;;;11.35;;
23044;SDS011;11690;51.716;23.066;2023-08-17T02:51:24;20.70;;;11.18;;
23044;SDS011;11690;51.716;23.066;2023-08-17T02:53:51;15.05;;;10.70;;
23044;SDS011;11690;51.716;23.066;2023-08-17T02:56:18;18.05;;;10.48;;
23044;SDS011;11690;51.716;23.066;2023-08-17T02:58:47;17.58;;;11.05;;
23044;SDS011;11690;51.716;23.066;2023-08-17T03:01:16;17.55;;;11.80;;
23044;SDS011;11690;51.716;23.066;2023-08-17T03:03:43;16.15;;;10.90;;
23044;SDS011;11690;51.716;23.066;2023-08-17T03:06:11;14.38;;;11.32;;
23044;SDS011;11690;51.716;23.066;2023-08-17T03:08:39;21.20;;;11.13;;
23044;SDS011;11690;51.716;23.066;2023-08-17T03:11:06;16.48;;;11.93;;
23044;SDS011;11690;51.716;23.066;2023-08-17T03:13:34;16.38;;;11.68;;
23044;SDS011;11690;51.716;23.066;2023-08-17T03:16:01;15.25;;;11.43;;
23044;SDS011;11690;51.716;23.066;2023-08-17T03:18:29;17.52;;;11.05;;
23044;SDS011;11690;51.716;23.066;2023-08-17T03:20:56;16.80;;;11.65;;
23044;SDS011;11690;51.716;23.066;2023-08-17T03:23:24;17.73;;;11.48;;
23044;SDS011;11690;51.716;23.066;2023-08-17T03:25:52;14.32;;;10.60;;
23044;SDS011;11690;51.716;23.066;2023-08-17T03:28:20;15.82;;;11.10;;
23044;SDS011;11690;51.716;23.066;2023-08-17T03:30:47;14.30;;;11.40;;
23044;SDS011;11690;51.716;23.066;2023-08-17T03:33:14;18.17;;;11.40;;
23044;SDS011;11690;51.716;23.066;2023-08-17T03:35:42;18.83;;;11.23;;
23044;SDS011;11690;51.716;23.066;2023-08-17T03:38:09;16.42;;;11.55;;
23044;SDS011;11690;51.716;23.066;2023-08-17T03:40:36;15.93;;;10.65;;
23044;SDS011;11690;51.716;23.066;2023-08-17T03:43:03;20.48;;;11.55;;
23044;SDS011;11690;51.716;23.066;2023-08-17T03:45:31;15.98;;;10.52;;
23044;SDS011;11690;51.716;23.066;2023-08-17T03:47:59;16.30;;;10.85;;
23044;SDS011;11690;51.716;23.066;2023-08-17T03:50:27;14.82;;;9.70;;
23044;SDS011;11690;51.716;23.066;2023-08-17T03:52:54;15.70;;;9.52;;
23044;SDS011;11690;51.716;23.066;2023-08-17T03:55:22;15.10;;;10.38;;
23044;SDS011;11690;51.716;23.066;2023-08-17T03:57:49;17.60;;;10.07;;
23044;SDS011;11690;51.716;23.066;2023-08-17T04:00:16;19.73;;;10.77;;
23044;SDS011;11690;51.716;23.066;2023-08-17T04:02:43;13.10;;;9.45;;
23044;SDS011;11690;51.716;23.066;2023-08-17T04:05:15;16.50;;;9.05;;
23044;SDS011;11690;51.716;23.066;2023-08-17T04:07:42;15.98;;;10.00;;
23044;SDS011;11690;51.716;23.066;2023-08-17T04:10:10;16.98;;;9.88;;
23044;SDS011;11690;51.716;23.066;2023-08-17T04:12:37;18.00;;;10.63;;
23044;SDS011;11690;51.716;23.066;2023-08-17T04:15:05;15.82;;;10.45;;
23044;SDS011;11690;51.716;23.066;2023-08-17T04:17:32;18.02;;;10.45;;
23044;SDS011;11690;51.716;23.066;2023-08-17T04:20:00;17.45;;;10.40;;
23044;SDS011;11690;51.716;23.066;2023-08-17T04:22:27;18.90;;;10.60;;
23044;SDS011;11690;51.716;23.066;2023-08-17T04:24:55;19.17;;;11.70;;
23044;SDS011;11690;51.716;23.066;2023-08-17T04:27:23;18.70;;;10.90;;
23044;SDS011;11690;51.716;23.066;2023-08-17T04:29:51;15.35;;;9.80;;
23044;SDS011;11690;51.716;23.066;2023-08-17T04:32:19;16.45;;;10.00;;
23044;SDS011;11690;51.716;23.066;2023-08-17T04:34:46;15.30;;;10.23;;
23044;SDS011;11690;51.716;23.066;2023-08-17T04:37:15;16.27;;;10.57;;
23044;SDS011;11690;51.716;23.066;2023-08-17T04:39:42;16.98;;;10.52;;
23044;SDS011;11690;51.716;23.066;2023-08-17T04:42:15;14.20;;;10.38;;
23044;SDS011;11690;51.716;23.066;2023-08-17T04:44:44;14.93;;;9.85;;
23044;SDS011;11690;51.716;23.066;2023-08-17T04:47:11;13.73;;;9.80;;
23044;SDS011;11690;51.716;23.066;2023-08-17T04:49:38;12.85;;;9.18;;
23044;SDS011;11690;51.716;23.066;2023-08-17T04:52:05;15.32;;;9.57;;
23044;SDS011;11690;51.716;23.066;2023-08-17T04:54:33;14.88;;;9.50;;
23044;SDS011;11690;51.716;23.066;2023-08-17T04:57:00;16.35;;;10.90;;
23044;SDS011;11690;51.716;23.066;2023-08-17T04:59:28;13.38;;;9.20;;
23044;SDS011;11690;51.716;23.066;2023-08-17T05:01:55;13.25;;;8.73;;
23044;SDS011;11690;51.716;23.066;2023-08-17T05:04:22;14.75;;;9.27;;
23044;SDS011;11690;51.716;23.066;2023-08-17T05:06:49;16.85;;;9.25;;
23044;SDS011;11690;51.716;23.066;2023-08-17T05:09:17;13.57;;;9.00;;
23044;SDS011;11690;51.716;23.066;2023-08-17T05:11:44;12.55;;;9.27;;
23044;SDS011;11690;51.716;23.066;2023-08-17T05:14:12;15.15;;;9.10;;
23044;SDS011;11690;51.716;23.066;2023-08-17T05:16:39;13.63;;;8.75;;
23044;SDS011;11690;51.716;23.066;2023-08-17T05:19:06;15.43;;;9.18;;
23044;SDS011;11690;51.716;23.066;2023-08-17T05:21:34;13.00;;;8.38;;
23044;SDS011;11690;51.716;23.066;2023-08-17T05:24:02;14.85;;;8.98;;
23044;SDS011;11690;51.716;23.066;2023-08-17T05:26:30;13.45;;;8.52;;
23044;SDS011;11690;51.716;23.066;2023-08-17T05:28:57;13.63;;;8.85;;
23044;SDS011;11690;51.716;23.066;2023-08-17T05:31:25;14.60;;;8.68;;
23044;SDS011;11690;51.716;23.066;2023-08-17T05:33:53;15.23;;;8.75;;
23044;SDS011;11690;51.716;23.066;2023-08-17T05:36:22;12.30;;;8.48;;
23044;SDS011;11690;51.716;23.066;2023-08-17T05:38:50;14.55;;;8.90;;
23044;SDS011;11690;51.716;23.066;2023-08-17T05:41:17;14.50;;;8.85;;
23044;SDS011;11690;51.716;23.066;2023-08-17T05:43:44;14.60;;;8.10;;
23044;SDS011;11690;51.716;23.066;2023-08-17T05:46:11;10.95;;;7.55;;
23044;SDS011;11690;51.716;23.066;2023-08-17T05:48:39;13.60;;;8.30;;
23044;SDS011;11690;51.716;23.066;2023-08-17T05:51:07;11.77;;;7.95;;
23044;SDS011;11690;51.716;23.066;2023-08-17T05:53:34;11.23;;;7.93;;
23044;SDS011;11690;51.716;23.066;2023-08-17T05:56:01;15.52;;;8.55;;
23044;SDS011;11690;51.716;23.066;2023-08-17T05:58:29;12.75;;;7.90;;
23044;SDS011;11690;51.716;23.066;2023-08-17T06:01:03;10.95;;;7.43;;
23044;SDS011;11690;51.716;23.066;2023-08-17T06:03:32;10.25;;;7.53;;
23044;SDS011;11690;51.716;23.066;2023-08-17T06:05:59;13.40;;;7.38;;
23044;SDS011;11690;51.716;23.066;2023-08-17T06:08:26;12.82;;;7.78;;
23044;SDS011;11690;51.716;23.066;2023-08-17T06:10:53;11.88;;;7.78;;
23044;SDS011;11690;51.716;23.066;2023-08-17T06:13:56;16.42;;;8.02;;
23044;SDS011;11690;51.716;23.066;2023-08-17T06:16:23;15.95;;;8.32;;
23044;SDS011;11690;51.716;23.066;2023-08-17T06:18:50;13.80;;;8.35;;
23044;SDS011;11690;51.716;23.066;2023-08-17T06:21:18;14.50;;;8.73;;
23044;SDS011;11690;51.716;23.066;2023-08-17T06:23:45;14.35;;;7.03;;
23044;SDS011;11690;51.716;23.066;2023-08-17T06:26:12;12.98;;;6.47;;
23044;SDS011;11690;51.716;23.066;2023-08-17T06:28:39;11.77;;;6.63;;
23044;SDS011;11690;51.716;23.066;2023-08-17T06:31:07;14.05;;;7.50;;
23044;SDS011;11690;51.716;23.066;2023-08-17T06:33:33;12.18;;;6.47;;
23044;SDS011;11690;51.716;23.066;2023-08-17T06:36:01;12.13;;;6.97;;
23044;SDS011;11690;51.716;23.066;2023-08-17T06:38:28;11.18;;;6.85;;
23044;SDS011;11690;51.716;23.066;2023-08-17T06:40:56;11.02;;;6.95;;
23044;SDS011;11690;51.716;23.066;2023-08-17T06:43:22;11.60;;;6.82;;
23044;SDS011;11690;51.716;23.066;2023-08-17T06:45:50;10.00;;;4.88;;
23044;SDS011;11690;51.716;23.066;2023-08-17T06:48:17;9.10;;;5.28;;
23044;SDS011;11690;51.716;23.066;2023-08-17T06:50:44;17.42;;;5.55;;
23044;SDS011;11690;51.716;23.066;2023-08-17T06:53:11;12.65;;;6.50;;
23044;SDS011;11690;51.716;23.066;2023-08-17T06:55:39;9.15;;;5.15;;
23044;SDS011;11690;51.716;23.066;2023-08-17T06:58:05;8.77;;;5.40;;
23044;SDS011;11690;51.716;23.066;2023-08-17T07:00:33;10.20;;;5.53;;
23044;SDS011;11690;51.716;23.066;2023-08-17T07:03:02;8.55;;;5.65;;
23044;SDS011;11690;51.716;23.066;2023-08-17T07:05:31;9.32;;;5.43;;
23044;SDS011;11690;51.716;23.066;2023-08-17T07:07:58;5.80;;;4.40;;
23044;SDS011;11690;51.716;23.066;2023-08-17T07:10:26;9.43;;;4.40;;
23044;SDS011;11690;51.716;23.066;2023-08-17T07:12:53;11.27;;;5.07;;
23044;SDS011;11690;51.716;23.066;2023-08-17T07:15:20;7.78;;;5.32;;
23044;SDS011;11690;51.716;23.066;2023-08-17T07:17:47;6.38;;;4.75;;
23044;SDS011;11690;51.716;23.066;2023-08-17T07:20:15;6.80;;;4.32;;
23044;SDS011;11690;51.716;23.066;2023-08-17T07:22:43;8.13;;;4.70;;
23044;SDS011;11690;51.716;23.066;2023-08-17T07:25:11;9.93;;;4.80;;
23044;SDS011;11690;51.716;23.066;2023-08-17T07:27:38;13.10;;;4.82;;
23044;SDS011;11690;51.716;23.066;2023-08-17T07:30:05;5.53;;;3.95;;
23044;SDS011;11690;51.716;23.066;2023-08-17T07:32:34;9.20;;;5.15;;
23044;SDS011;11690;51.716;23.066;2023-08-17T07:35:01;6.50;;;4.32;;
23044;SDS011;11690;51.716;23.066;2023-08-17T07:37:28;8.65;;;4.25;;
23044;SDS011;11690;51.716;23.066;2023-08-17T07:40:00;6.53;;;4.30;;
23044;SDS011;11690;51.716;23.066;2023-08-17T07:42:30;9.20;;;4.15;;
23044;SDS011;11690;51.716;23.066;2023-08-17T07:44:58;9.43;;;3.92;;
23044;SDS011;11690;51.716;23.066;2023-08-17T07:47:24;6.85;;;4.38;;
23044;SDS011;11690;51.716;23.066;2023-08-17T07:49:53;8.80;;;4.40;;
23044;SDS011;11690;51.716;23.066;2023-08-17T07:52:20;8.23;;;4.30;;
23044;SDS011;11690;51.716;23.066;2023-08-17T07:54:47;12.20;;;4.45;;
23044;SDS011;11690;51.716;23.066;2023-08-17T07:57:14;9.63;;;4.75;;
23044;SDS011;11690;51.716;23.066;2023-08-17T07:59:41;8.35;;;5.13;;
23044;SDS011;11690;51.716;23.066;2023-08-17T08:02:08;10.38;;;4.70;;
23044;SDS011;11690;51.716;23.066;2023-08-17T08:04:35;7.05;;;4.35;;
23044;SDS011;11690;51.716;23.066;2023-08-17T08:07:03;9.10;;;4.55;;
23044;SDS011;11690;51.716;23.066;2023-08-17T08:09:30;8.10;;;3.95;;
23044;SDS011;11690;51.716;23.066;2023-08-17T08:11:57;6.40;;;4.10;;
23044;SDS011;11690;51.716;23.066;2023-08-17T08:14:24;6.13;;;4.32;;
23044;SDS011;11690;51.716;23.066;2023-08-17T08:16:51;9.13;;;4.03;;
23044;SDS011;11690;51.716;23.066;2023-08-17T08:19:18;9.13;;;3.83;;
23044;SDS011;11690;51.716;23.066;2023-08-17T08:21:45;8.00;;;4.85;;
23044;SDS011;11690;51.716;23.066;2023-08-17T08:24:13;7.50;;;4.00;;
23044;SDS011;11690;51.716;23.066;2023-08-17T08:27:00;6.20;;;4.13;;
23044;SDS011;11690;51.716;23.066;2023-08-17T08:29:30;9.38;;;4.18;;
23044;SDS011;11690;51.716;23.066;2023-08-17T08:31:57;8.40;;;3.80;;
23044;SDS011;11690;51.716;23.066;2023-08-17T08:34:27;6.20;;;3.80;;
23044;SDS011;11690;51.716;23.066;2023-08-17T08:36:54;7.05;;;4.43;;
23044;SDS011;11690;51.716;23.066;2023-08-17T08:39:25;5.78;;;4.25;;
23044;SDS011;11690;51.716;23.066;2023-08-17T08:41:52;10.05;;;3.95;;
23044;SDS011;11690;51.716;23.066;2023-08-17T08:44:20;5.78;;;3.70;;
23044;SDS011;11690;51.716;23.066;2023-08-17T08:46:47;4.80;;;3.80;;
23044;SDS011;11690;51.716;23.066;2023-08-17T08:49:17;7.53;;;3.95;;
23044;SDS011;11690;51.716;23.066;2023-08-17T08:51:48;7.38;;;3.60;;
23044;SDS011;11690;51.716;23.066;2023-08-17T08:54:18;7.80;;;4.00;;
23044;SDS011;11690;51.716;23.066;2023-08-17T08:56:50;7.05;;;4.25;;
23044;SDS011;11690;51.716;23.066;2023-08-17T08:59:20;8.43;;;3.88;;
23044;SDS011;11690;51.716;23.066;2023-08-17T09:01:47;9.38;;;3.88;;
23044;SDS011;11690;51.716;23.066;2023-08-17T09:04:17;8.20;;;3.83;;
23044;SDS011;11690;51.716;23.066;2023-08-17T09:06:44;5.28;;;3.30;;
23044;SDS011;11690;51.716;23.066;2023-08-17T09:09:12;23.52;;;5.95;;
23044;SDS011;11690;51.716;23.066;2023-08-17T09:11:42;44.10;;;7.88;;
23044;SDS011;11690;51.716;23.066;2023-08-17T09:14:11;9.18;;;4.47;;
23044;SDS011;11690;51.716;23.066;2023-08-17T09:16:38;47.70;;;10.20;;
23044;SDS011;11690;51.716;23.066;2023-08-17T09:19:05;10.93;;;3.97;;
23044;SDS011;11690;51.716;23.066;2023-08-17T09:21:33;11.75;;;4.35;;
23044;SDS011;11690;51.716;23.066;2023-08-17T09:24:01;11.57;;;4.40;;
23044;SDS011;11690;51.716;23.066;2023-08-17T09:26:30;8.68;;;3.88;;
23044;SDS011;11690;51.716;23.066;2023-08-17T09:28:59;12.60;;;4.72;;
23044;SDS011;11690;51.716;23.066;2023-08-17T09:31:26;16.30;;;4.82;;
23044;SDS011;11690;51.716;23.066;2023-08-17T09:33:57;9.38;;;3.92;;
23044;SDS011;11690;51.716;23.066;2023-08-17T09:36:25;7.18;;;3.47;;
23044;SDS011;11690;51.716;23.066;2023-08-17T09:38:52;10.60;;;3.80;;
23044;SDS011;11690;51.716;23.066;2023-08-17T09:41:19;8.20;;;3.70;;
23044;SDS011;11690;51.716;23.066;2023-08-17T09:43:56;9.40;;;3.45;;
23044;SDS011;11690;51.716;23.066;2023-08-17T09:46:23;9.60;;;4.15;;
23044;SDS011;11690;51.716;23.066;2023-08-17T09:48:53;6.72;;;3.65;;
23044;SDS011;11690;51.716;23.066;2023-08-17T09:51:20;10.88;;;4.15;;
23044;SDS011;11690;51.716;23.066;2023-08-17T09:53:51;7.05;;;3.85;;
23044;SDS011;11690;51.716;23.066;2023-08-17T09:56:26;10.52;;;3.67;;
23044;SDS011;11690;51.716;23.066;2023-08-17T09:58:54;7.38;;;3.80;;
23044;SDS011;11690;51.716;23.066;2023-08-17T10:01:22;9.45;;;3.40;;
23044;SDS011;11690;51.716;23.066;2023-08-17T10:03:51;4.38;;;3.20;;
23044;SDS011;11690;51.716;23.066;2023-08-17T10:06:20;4.20;;;3.45;;
23044;SDS011;11690;51.716;23.066;2023-08-17T10:08:52;5.97;;;3.75;;
23044;SDS011;11690;51.716;23.066;2023-08-17T10:11:19;7.47;;;4.50;;
23044;SDS011;11690;51.716;23.066;2023-08-17T10:13:52;11.80;;;4.53;;
23044;SDS011;11690;51.716;23.066;2023-08-17T10:16:26;8.63;;;4.22;;
23044;SDS011;11690;51.716;23.066;2023-08-17T10:19:08;11.38;;;4.13;;
23044;SDS011;11690;51.716;23.066;2023-08-17T10:21:50;7.10;;;3.85;;
23044;SDS011;11690;51.716;23.066;2023-08-17T10:24:24;8.50;;;4.45;;
23044;SDS011;11690;51.716;23.066;2023-08-17T10:26:51;5.55;;;3.63;;
23044;SDS011;11690;51.716;23.066;2023-08-17T10:29:22;11.05;;;4.35;;
23044;SDS011;11690;51.716;23.066;2023-08-17T10:31:50;7.55;;;4.18;;
23044;SDS011;11690;51.716;23.066;2023-08-17T10:34:18;8.65;;;4.43;;
23044;SDS011;11690;51.716;23.066;2023-08-17T10:36:45;7.95;;;4.00;;
23044;SDS011;11690;51.716;23.066;2023-08-17T10:39:23;11.15;;;4.00;;
23044;SDS011;11690;51.716;23.066;2023-08-17T10:41:56;8.65;;;4.03;;
23044;SDS011;11690;51.716;23.066;2023-08-17T10:47:23;8.20;;;4.80;;
23044;SDS011;11690;51.716;23.066;2023-08-17T10:49:59;7.47;;;4.20;;
23044;SDS011;11690;51.716;23.066;2023-08-17T10:52:30;7.75;;;4.53;;
23044;SDS011;11690;51.716;23.066;2023-08-17T10:55:02;11.93;;;4.50;;
23044;SDS011;11690;51.716;23.066;2023-08-17T10:57:35;8.32;;;4.65;;
23044;SDS011;11690;51.716;23.066;2023-08-17T11:02:56;8.15;;;4.63;;
23044;SDS011;11690;51.716;23.066;2023-08-17T11:08:20;6.68;;;3.70;;
23044;SDS011;11690;51.716;23.066;2023-08-17T11:13:29;5.18;;;3.38;;
23044;SDS011;11690;51.716;23.066;2023-08-17T11:16:16;6.90;;;3.67;;
23044;SDS011;11690;51.716;23.066;2023-08-17T11:18:46;3.97;;;3.50;;
23044;SDS011;11690;51.716;23.066;2023-08-17T11:21:16;7.90;;;3.78;;
23044;SDS011;11690;51.716;23.066;2023-08-17T11:23:46;9.48;;;3.45;;
23044;SDS011;11690;51.716;23.066;2023-08-17T11:26:16;5.75;;;3.70;;
23044;SDS011;11690;51.716;23.066;2023-08-17T11:28:44;5.20;;;3.85;;
23044;SDS011;11690;51.716;23.066;2023-08-17T11:31:13;5.78;;;3.60;;
23044;SDS011;11690;51.716;23.066;2023-08-17T11:33:42;5.03;;;3.63;;
23044;SDS011;11690;51.716;23.066;2023-08-17T11:44:58;9.25;;;3.85;;
23044;SDS011;11690;51.716;23.066;2023-08-17T11:47:26;11.35;;;4.30;;
23044;SDS011;11690;51.716;23.066;2023-08-17T11:49:59;7.80;;;4.03;;
23044;SDS011;11690;51.716;23.066;2023-08-17T11:52:44;5.55;;;3.65;;
23044;SDS011;11690;51.716;23.066;2023-08-17T11:55:13;6.90;;;3.80;;
23044;SDS011;11690;51.716;23.066;2023-08-17T11:57:44;11.05;;;3.97;;
23044;SDS011;11690;51.716;23.066;2023-08-17T12:00:16;9.70;;;3.85;;
23044;SDS011;11690;51.716;23.066;2023-08-17T12:02:50;5.70;;;3.72;;
23044;SDS011;11690;51.716;23.066;2023-08-17T12:05:20;9.70;;;3.58;;
23044;SDS011;11690;51.716;23.066;2023-08-17T12:07:53;5.78;;;3.72;;
23044;SDS011;11690;51.716;23.066;2023-08-17T12:10:21;6.80;;;4.10;;
23044;SDS011;11690;51.716;23.066;2023-08-17T12:12:53;9.10;;;4.50;;
23044;SDS011;11690;51.716;23.066;2023-08-17T12:15:20;6.72;;;3.90;;
23044;SDS011;11690;51.716;23.066;2023-08-17T12:17:47;5.65;;;3.35;;
23044;SDS011;11690;51.716;23.066;2023-08-17T12:20:18;7.95;;;4.00;;
23044;SDS011;11690;51.716;23.066;2023-08-17T12:22:47;5.95;;;3.83;;
23044;SDS011;11690;51.716;23.066;2023-08-17T12:25:15;5.10;;;3.67;;
23044;SDS011;11690;51.716;23.066;2023-08-17T12:27:42;5.07;;;3.33;;
23044;SDS011;11690;51.716;23.066;2023-08-17T12:30:14;6.57;;;2.92;;
23044;SDS011;11690;51.716;23.066;2023-08-17T12:32:52;12.48;;;3.88;;
23044;SDS011;11690;51.716;23.066;2023-08-17T12:35:21;4.47;;;3.80;;
23044;SDS011;11690;51.716;23.066;2023-08-17T12:37:53;7.82;;;3.50;;
23044;SDS011;11690;51.716;23.066;2023-08-17T12:40:21;5.68;;;3.67;;
23044;SDS011;11690;51.716;23.066;2023-08-17T12:42:49;4.95;;;3.40;;
23044;SDS011;11690;51.716;23.066;2023-08-17T12:45:16;3.90;;;3.35;;
23044;SDS011;11690;51.716;23.066;2023-08-17T12:47:44;8.43;;;3.40;;
23044;SDS011;11690;51.716;23.066;2023-08-17T12:50:11;10.90;;;3.22;;
23044;SDS011;11690;51.716;23.066;2023-08-17T12:52:38;8.27;;;3.50;;
23044;SDS011;11690;51.716;23.066;2023-08-17T12:55:05;6.82;;;3.30;;
23044;SDS011;11690;51.716;23.066;2023-08-17T12:57:33;7.10;;;3.47;;
23044;SDS011;11690;51.716;23.066;2023-08-17T13:00:00;4.63;;;3.50;;
23044;SDS011;11690;51.716;23.066;2023-08-17T13:02:27;4.65;;;3.25;;
23044;SDS011;11690;51.716;23.066;2023-08-17T13:04:55;11.25;;;3.30;;
23044;SDS011;11690;51.716;23.066;2023-08-17T13:07:23;9.00;;;3.80;;
23044;SDS011;11690;51.716;23.066;2023-08-17T13:09:50;7.10;;;3.58;;
23044;SDS011;11690;51.716;23.066;2023-08-17T13:12:17;9.43;;;4.18;;
23044;SDS011;11690;51.716;23.066;2023-08-17T13:14:44;4.68;;;3.58;;
23044;SDS011;11690;51.716;23.066;2023-08-17T13:17:11;8.23;;;3.53;;
23044;SDS011;11690;51.716;23.066;2023-08-17T13:19:41;4.68;;;3.30;;
23044;SDS011;11690;51.716;23.066;2023-08-17T13:22:08;3.80;;;2.97;;
23044;SDS011;11690;51.716;23.066;2023-08-17T13:24:35;8.15;;;3.33;;
23044;SDS011;11690;51.716;23.066;2023-08-17T13:27:02;4.40;;;3.20;;
23044;SDS011;11690;51.716;23.066;2023-08-17T13:29:29;5.50;;;3.50;;
23044;SDS011;11690;51.716;23.066;2023-08-17T13:31:57;3.78;;;2.92;;
23044;SDS011;11690;51.716;23.066;2023-08-17T13:34:24;5.05;;;3.13;;
23044;SDS011;11690;51.716;23.066;2023-08-17T13:36:51;4.75;;;3.30;;
23044;SDS011;11690;51.716;23.066;2023-08-17T13:39:18;7.30;;;2.65;;
23044;SDS011;11690;51.716;23.066;2023-08-17T13:41:45;4.57;;;2.53;;
23044;SDS011;11690;51.716;23.066;2023-08-17T13:44:12;8.35;;;2.63;;
23044;SDS011;11690;51.716;23.066;2023-08-17T13:46:39;3.90;;;2.00;;
23044;SDS011;11690;51.716;23.066;2023-08-17T13:49:06;2.88;;;2.10;;
23044;SDS011;11690;51.716;23.066;2023-08-17T13:51:34;3.40;;;2.20;;
23044;SDS011;11690;51.716;23.066;2023-08-17T13:54:01;4.78;;;2.00;;
23044;SDS011;11690;51.716;23.066;2023-08-17T13:56:28;8.50;;;2.45;;
23044;SDS011;11690;51.716;23.066;2023-08-17T13:58:55;3.05;;;2.40;;
23044;SDS011;11690;51.716;23.066;2023-08-17T14:01:23;3.90;;;2.53;;
23044;SDS011;11690;51.716;23.066;2023-08-17T14:03:50;3.78;;;2.50;;
23044;SDS011;11690;51.716;23.066;2023-08-17T14:06:18;4.22;;;2.42;;
23044;SDS011;11690;51.716;23.066;2023-08-17T14:08:45;4.28;;;2.53;;
23044;SDS011;11690;51.716;23.066;2023-08-17T14:11:12;4.78;;;2.63;;
23044;SDS011;11690;51.716;23.066;2023-08-17T14:13:39;7.53;;;2.38;;
23044;SDS011;11690;51.716;23.066;2023-08-17T14:16:06;4.57;;;2.42;;
23044;SDS011;11690;51.716;23.066;2023-08-17T14:18:34;5.32;;;2.53;;
23044;SDS011;11690;51.716;23.066;2023-08-17T14:21:01;4.28;;;2.90;;
23044;SDS011;11690;51.716;23.066;2023-08-17T14:23:28;3.88;;;2.88;;
23044;SDS011;11690;51.716;23.066;2023-08-17T14:25:56;5.78;;;2.55;;
23044;SDS011;11690;51.716;23.066;2023-08-17T14:28:23;3.50;;;2.70;;
23044;SDS011;11690;51.716;23.066;2023-08-17T14:30:50;4.00;;;3.00;;
23044;SDS011;11690;51.716;23.066;2023-08-17T14:33:19;6.75;;;2.67;;
23044;SDS011;11690;51.716;23.066;2023-08-17T14:35:46;5.35;;;2.60;;
23044;SDS011;11690;51.716;23.066;2023-08-17T14:38:13;13.57;;;2.40;;
23044;SDS011;11690;51.716;23.066;2023-08-17T14:40:44;5.88;;;2.80;;
23044;SDS011;11690;51.716;23.066;2023-08-17T14:43:12;2.90;;;2.58;;
23044;SDS011;11690;51.716;23.066;2023-08-17T14:45:43;6.78;;;2.55;;
23044;SDS011;11690;51.716;23.066;2023-08-17T14:48:10;5.80;;;2.97;;
23044;SDS011;11690;51.716;23.066;2023-08-17T14:50:37;3.95;;;2.97;;
23044;SDS011;11690;51.716;23.066;2023-08-17T14:53:05;7.35;;;3.00;;
23044;SDS011;11690;51.716;23.066;2023-08-17T14:55:33;6.50;;;2.97;;